sensor_id;sensor_type;location;lat;lon;timestamp;temperature;humidity
13223;DHT22;6676;45.192;5.722;2022-07-05T00:00:28;22.70;99.90
13223;DHT22;6676;45.192;5.722;2022-07-05T00:03:20;22.70;99.90
13223;DHT22;6676;45.192;5.722;2022-07-05T00:06:12;22.70;99.90
13223;DHT22;6676;45.192;5.722;2022-07-05T00:09:04;22.60;99.90
13223;DHT22;6676;45.192;5.722;2022-07-05T00:11:55;22.60;99.90
13223;DHT22;6676;45.192;5.722;2022-07-05T00:14:48;22.60;99.90
13223;DHT22;6676;45.192;5.722;2022-07-05T00:17:39;22.60;99.90
13223;DHT22;6676;45.192;5.722;2022-07-05T00:20:31;22.60;99.90
13223;DHT22;6676;45.192;5.722;2022-07-05T00:23:22;22.60;99.90
13223;DHT22;6676;45.192;5.722;2022-07-05T00:26:13;22.50;99.90
13223;DHT22;6676;45.192;5.722;2022-07-05T00:29:05;22.50;99.90
13223;DHT22;6676;45.192;5.722;2022-07-05T00:31:56;22.50;99.90
13223;DHT22;6676;45.192;5.722;2022-07-05T00:34:48;22.40;99.90
13223;DHT22;6676;45.192;5.722;2022-07-05T00:37:39;22.30;99.90
13223;DHT22;6676;45.192;5.722;2022-07-05T00:40:31;22.30;99.90
13223;DHT22;6676;45.192;5.722;2022-07-05T00:43:23;22.20;99.90
13223;DHT22;6676;45.192;5.722;2022-07-05T00:46:14;22.10;99.90
13223;DHT22;6676;45.192;5.722;2022-07-05T00:49:07;22.00;99.90
13223;DHT22;6676;45.192;5.722;2022-07-05T00:51:59;21.90;99.90
13223;DHT22;6676;45.192;5.722;2022-07-05T00:54:52;21.80;99.90
13223;DHT22;6676;45.192;5.722;2022-07-05T00:57:44;21.70;99.90
13223;DHT22;6676;45.192;5.722;2022-07-05T01:00:35;21.60;99.90
13223;DHT22;6676;45.192;5.722;2022-07-05T01:03:27;21.50;99.90
13223;DHT22;6676;45.192;5.722;2022-07-05T01:06:18;21.40;99.90
13223;DHT22;6676;45.192;5.722;2022-07-05T01:09:12;21.30;99.90
13223;DHT22;6676;45.192;5.722;2022-07-05T01:12:04;21.30;99.90
13223;DHT22;6676;45.192;5.722;2022-07-05T01:14:56;21.30;99.90
13223;DHT22;6676;45.192;5.722;2022-07-05T01:17:48;21.30;99.90
13223;DHT22;6676;45.192;5.722;2022-07-05T01:20:40;21.30;99.90
13223;DHT22;6676;45.192;5.722;2022-07-05T01:23:33;21.30;99.90
13223;DHT22;6676;45.192;5.722;2022-07-05T01:26:25;21.30;99.90
13223;DHT22;6676;45.192;5.722;2022-07-05T01:29:16;21.30;99.90
13223;DHT22;6676;45.192;5.722;2022-07-05T01:32:08;21.30;99.90
13223;DHT22;6676;45.192;5.722;2022-07-05T01:35:00;21.30;99.90
13223;DHT22;6676;45.192;5.722;2022-07-05T01:37:52;21.30;99.90
13223;DHT22;6676;45.192;5.722;2022-07-05T01:40:44;21.20;99.90
13223;DHT22;6676;45.192;5.722;2022-07-05T01:43:35;21.20;99.90
13223;DHT22;6676;45.192;5.722;2022-07-05T01:46:29;21.20;99.90
13223;DHT22;6676;45.192;5.722;2022-07-05T01:49:23;21.20;99.90
13223;DHT22;6676;45.192;5.722;2022-07-05T01:52:17;21.20;99.90
13223;DHT22;6676;45.192;5.722;2022-07-05T01:55:10;21.30;99.90
13223;DHT22;6676;45.192;5.722;2022-07-05T01:58:02;21.30;99.90
13223;DHT22;6676;45.192;5.722;2022-07-05T02:00:55;21.30;99.90
13223;DHT22;6676;45.192;5.722;2022-07-05T02:03:51;21.40;99.90
13223;DHT22;6676;45.192;5.722;2022-07-05T02:06:45;21.40;99.90
13223;DHT22;6676;45.192;5.722;2022-07-05T02:09:37;21.30;99.90
13223;DHT22;6676;45.192;5.722;2022-07-05T02:15:11;21.20;99.90
13223;DHT22;6676;45.192;5.722;2022-07-05T02:18:07;21.10;99.90
13223;DHT22;6676;45.192;5.722;2022-07-05T02:21:00;21.00;99.90
13223;DHT22;6676;45.192;5.722;2022-07-05T02:23:52;20.90;99.90
13223;DHT22;6676;45.192;5.722;2022-07-05T02:26:46;20.80;99.90
13223;DHT22;6676;45.192;5.722;2022-07-05T02:29:39;20.90;99.90
13223;DHT22;6676;45.192;5.722;2022-07-05T02:32:31;20.90;99.90
13223;DHT22;6676;45.192;5.722;2022-07-05T02:35:24;20.90;99.90
13223;DHT22;6676;45.192;5.722;2022-07-05T02:38:16;20.90;99.90
13223;DHT22;6676;45.192;5.722;2022-07-05T02:41:08;20.80;99.90
13223;DHT22;6676;45.192;5.722;2022-07-05T02:44:02;20.80;99.90
13223;DHT22;6676;45.192;5.722;2022-07-05T02:46:53;20.70;99.90
13223;DHT22;6676;45.192;5.722;2022-07-05T02:49:45;20.70;99.90
13223;DHT22;6676;45.192;5.722;2022-07-05T02:52:38;20.70;99.90
13223;DHT22;6676;45.192;5.722;2022-07-05T02:55:30;20.80;99.90
13223;DHT22;6676;45.192;5.722;2022-07-05T02:58:23;20.90;99.90
13223;DHT22;6676;45.192;5.722;2022-07-05T03:01:15;20.80;99.90
13223;DHT22;6676;45.192;5.722;2022-07-05T03:04:07;20.80;99.90
13223;DHT22;6676;45.192;5.722;2022-07-05T03:07:01;20.90;99.90
13223;DHT22;6676;45.192;5.722;2022-07-05T03:09:57;20.90;99.90
13223;DHT22;6676;45.192;5.722;2022-07-05T03:12:50;21.00;99.90
13223;DHT22;6676;45.192;5.722;2022-07-05T03:15:41;21.00;99.90
13223;DHT22;6676;45.192;5.722;2022-07-05T03:18:37;21.00;99.90
13223;DHT22;6676;45.192;5.722;2022-07-05T03:21:29;20.90;99.90
13223;DHT22;6676;45.192;5.722;2022-07-05T03:24:21;20.80;99.90
13223;DHT22;6676;45.192;5.722;2022-07-05T03:27:12;20.80;99.90
13223;DHT22;6676;45.192;5.722;2022-07-05T03:30:09;20.80;99.90
13223;DHT22;6676;45.192;5.722;2022-07-05T03:33:02;20.90;99.90
13223;DHT22;6676;45.192;5.722;2022-07-05T03:35:53;20.90;99.90
13223;DHT22;6676;45.192;5.722;2022-07-05T03:38:46;20.90;99.90
13223;DHT22;6676;45.192;5.722;2022-07-05T03:41:37;20.80;99.90
13223;DHT22;6676;45.192;5.722;2022-07-05T03:44:29;20.70;99.90
13223;DHT22;6676;45.192;5.722;2022-07-05T03:47:24;20.70;99.90
13223;DHT22;6676;45.192;5.722;2022-07-05T03:50:15;20.60;99.90
13223;DHT22;6676;45.192;5.722;2022-07-05T03:53:07;20.50;99.90
13223;DHT22;6676;45.192;5.722;2022-07-05T03:55:58;20.50;99.90
13223;DHT22;6676;45.192;5.722;2022-07-05T03:58:50;20.50;99.90
13223;DHT22;6676;45.192;5.722;2022-07-05T04:01:42;20.40;99.90
13223;DHT22;6676;45.192;5.722;2022-07-05T04:04:35;20.30;99.90
13223;DHT22;6676;45.192;5.722;2022-07-05T04:07:27;20.30;99.90
13223;DHT22;6676;45.192;5.722;2022-07-05T04:10:19;20.20;99.90
13223;DHT22;6676;45.192;5.722;2022-07-05T04:13:11;20.30;99.90
13223;DHT22;6676;45.192;5.722;2022-07-05T04:16:04;20.20;99.90
13223;DHT22;6676;45.192;5.722;2022-07-05T04:18:56;20.20;99.90
13223;DHT22;6676;45.192;5.722;2022-07-05T04:21:49;20.20;99.90
13223;DHT22;6676;45.192;5.722;2022-07-05T04:24:40;20.20;99.90
13223;DHT22;6676;45.192;5.722;2022-07-05T04:27:51;20.10;99.90
13223;DHT22;6676;45.192;5.722;2022-07-05T04:30:43;20.10;99.90
13223;DHT22;6676;45.192;5.722;2022-07-05T04:33:35;20.10;99.90
13223;DHT22;6676;45.192;5.722;2022-07-05T04:36:27;20.10;99.90
13223;DHT22;6676;45.192;5.722;2022-07-05T04:39:18;20.20;99.90
13223;DHT22;6676;45.192;5.722;2022-07-05T04:42:11;20.20;99.90
13223;DHT22;6676;45.192;5.722;2022-07-05T04:45:04;20.20;99.90
13223;DHT22;6676;45.192;5.722;2022-07-05T04:47:56;20.20;99.90
13223;DHT22;6676;45.192;5.722;2022-07-05T04:50:48;20.30;99.90
13223;DHT22;6676;45.192;5.722;2022-07-05T04:53:40;20.30;99.90
13223;DHT22;6676;45.192;5.722;2022-07-05T04:56:31;20.30;99.90
13223;DHT22;6676;45.192;5.722;2022-07-05T04:59:22;20.30;99.90
13223;DHT22;6676;45.192;5.722;2022-07-05T05:02:15;20.30;99.90
13223;DHT22;6676;45.192;5.722;2022-07-05T05:05:08;20.30;99.90
13223;DHT22;6676;45.192;5.722;2022-07-05T05:08:02;20.30;99.90
13223;DHT22;6676;45.192;5.722;2022-07-05T05:10:54;20.20;99.90
13223;DHT22;6676;45.192;5.722;2022-07-05T05:13:46;20.30;99.90
13223;DHT22;6676;45.192;5.722;2022-07-05T05:16:37;20.30;99.90
13223;DHT22;6676;45.192;5.722;2022-07-05T05:19:29;20.30;99.90
13223;DHT22;6676;45.192;5.722;2022-07-05T05:22:20;20.30;99.90
13223;DHT22;6676;45.192;5.722;2022-07-05T05:25:12;20.30;99.90
13223;DHT22;6676;45.192;5.722;2022-07-05T05:28:05;20.40;99.90
13223;DHT22;6676;45.192;5.722;2022-07-05T05:30:56;20.40;99.90
13223;DHT22;6676;45.192;5.722;2022-07-05T05:33:48;20.50;99.90
13223;DHT22;6676;45.192;5.722;2022-07-05T05:36:40;20.50;99.90
13223;DHT22;6676;45.192;5.722;2022-07-05T05:39:31;20.60;99.90
13223;DHT22;6676;45.192;5.722;2022-07-05T05:42:23;20.60;99.90
13223;DHT22;6676;45.192;5.722;2022-07-05T05:45:14;20.60;99.90
13223;DHT22;6676;45.192;5.722;2022-07-05T05:48:06;20.60;99.90
13223;DHT22;6676;45.192;5.722;2022-07-05T05:50:57;20.70;99.90
13223;DHT22;6676;45.192;5.722;2022-07-05T05:53:50;20.70;99.90
13223;DHT22;6676;45.192;5.722;2022-07-05T05:56:41;20.80;99.90
13223;DHT22;6676;45.192;5.722;2022-07-05T05:59:33;20.70;99.90
13223;DHT22;6676;45.192;5.722;2022-07-05T06:02:27;20.70;99.90
13223;DHT22;6676;45.192;5.722;2022-07-05T06:05:19;20.70;99.90
13223;DHT22;6676;45.192;5.722;2022-07-05T06:08:10;20.60;99.90
13223;DHT22;6676;45.192;5.722;2022-07-05T06:11:02;20.60;99.90
13223;DHT22;6676;45.192;5.722;2022-07-05T06:13:54;20.60;99.90
13223;DHT22;6676;45.192;5.722;2022-07-05T06:16:46;20.60;99.90
13223;DHT22;6676;45.192;5.722;2022-07-05T06:19:37;20.60;99.90
13223;DHT22;6676;45.192;5.722;2022-07-05T06:22:29;20.70;99.90
13223;DHT22;6676;45.192;5.722;2022-07-05T06:25:21;20.70;99.90
13223;DHT22;6676;45.192;5.722;2022-07-05T06:28:14;20.80;99.90
13223;DHT22;6676;45.192;5.722;2022-07-05T06:31:06;20.90;99.90
13223;DHT22;6676;45.192;5.722;2022-07-05T06:33:57;20.80;99.90
13223;DHT22;6676;45.192;5.722;2022-07-05T06:36:49;20.90;99.90
13223;DHT22;6676;45.192;5.722;2022-07-05T06:39:41;21.00;99.90
13223;DHT22;6676;45.192;5.722;2022-07-05T06:42:33;21.00;99.90
13223;DHT22;6676;45.192;5.722;2022-07-05T06:45:25;21.10;99.90
13223;DHT22;6676;45.192;5.722;2022-07-05T06:48:17;21.20;99.90
13223;DHT22;6676;45.192;5.722;2022-07-05T06:51:08;21.20;99.90
13223;DHT22;6676;45.192;5.722;2022-07-05T06:54:00;21.40;99.90
13223;DHT22;6676;45.192;5.722;2022-07-05T06:56:55;21.50;99.90
13223;DHT22;6676;45.192;5.722;2022-07-05T06:59:47;21.50;99.90
13223;DHT22;6676;45.192;5.722;2022-07-05T07:02:40;21.50;99.90
13223;DHT22;6676;45.192;5.722;2022-07-05T07:05:32;21.50;99.90
13223;DHT22;6676;45.192;5.722;2022-07-05T07:08:25;21.60;99.90
13223;DHT22;6676;45.192;5.722;2022-07-05T07:11:34;21.60;99.90
13223;DHT22;6676;45.192;5.722;2022-07-05T07:14:26;21.70;99.90
13223;DHT22;6676;45.192;5.722;2022-07-05T07:17:17;21.80;99.90
13223;DHT22;6676;45.192;5.722;2022-07-05T07:20:10;21.80;99.90
13223;DHT22;6676;45.192;5.722;2022-07-05T07:23:01;21.90;99.90
13223;DHT22;6676;45.192;5.722;2022-07-05T07:25:53;21.90;99.90
13223;DHT22;6676;45.192;5.722;2022-07-05T07:28:44;22.00;99.90
13223;DHT22;6676;45.192;5.722;2022-07-05T07:31:36;22.10;99.90
13223;DHT22;6676;45.192;5.722;2022-07-05T07:34:28;22.20;99.90
13223;DHT22;6676;45.192;5.722;2022-07-05T07:37:19;22.20;99.90
13223;DHT22;6676;45.192;5.722;2022-07-05T07:40:11;22.20;99.90
13223;DHT22;6676;45.192;5.722;2022-07-05T07:43:03;22.20;99.90
13223;DHT22;6676;45.192;5.722;2022-07-05T07:45:55;22.40;99.90
13223;DHT22;6676;45.192;5.722;2022-07-05T07:48:48;22.50;99.90
13223;DHT22;6676;45.192;5.722;2022-07-05T07:51:39;22.50;99.90
13223;DHT22;6676;45.192;5.722;2022-07-05T07:54:31;22.60;99.90
13223;DHT22;6676;45.192;5.722;2022-07-05T07:57:31;22.70;99.90
13223;DHT22;6676;45.192;5.722;2022-07-05T08:00:23;22.70;99.90
13223;DHT22;6676;45.192;5.722;2022-07-05T08:03:14;22.80;99.90
13223;DHT22;6676;45.192;5.722;2022-07-05T08:06:05;22.80;99.90
13223;DHT22;6676;45.192;5.722;2022-07-05T08:08:57;22.80;99.90
13223;DHT22;6676;45.192;5.722;2022-07-05T08:11:48;22.90;99.90
13223;DHT22;6676;45.192;5.722;2022-07-05T08:14:39;23.00;99.90
13223;DHT22;6676;45.192;5.722;2022-07-05T08:17:31;23.00;99.90
13223;DHT22;6676;45.192;5.722;2022-07-05T08:20:23;23.00;99.90
13223;DHT22;6676;45.192;5.722;2022-07-05T08:23:32;23.10;99.90
13223;DHT22;6676;45.192;5.722;2022-07-05T08:26:24;23.20;99.90
13223;DHT22;6676;45.192;5.722;2022-07-05T08:29:15;23.30;99.90
13223;DHT22;6676;45.192;5.722;2022-07-05T08:32:09;23.40;99.90
13223;DHT22;6676;45.192;5.722;2022-07-05T08:35:02;23.60;99.90
13223;DHT22;6676;45.192;5.722;2022-07-05T08:37:54;23.70;99.90
13223;DHT22;6676;45.192;5.722;2022-07-05T08:40:49;23.90;99.90
13223;DHT22;6676;45.192;5.722;2022-07-05T08:43:42;23.90;99.90
13223;DHT22;6676;45.192;5.722;2022-07-05T08:46:38;24.00;99.90
13223;DHT22;6676;45.192;5.722;2022-07-05T08:49:31;24.00;99.90
13223;DHT22;6676;45.192;5.722;2022-07-05T08:52:24;24.10;99.90
13223;DHT22;6676;45.192;5.722;2022-07-05T08:55:18;24.20;99.90
13223;DHT22;6676;45.192;5.722;2022-07-05T08:58:09;24.30;99.90
13223;DHT22;6676;45.192;5.722;2022-07-05T09:01:01;24.30;99.90
13223;DHT22;6676;45.192;5.722;2022-07-05T09:03:53;24.40;99.90
13223;DHT22;6676;45.192;5.722;2022-07-05T09:06:48;24.40;99.90
13223;DHT22;6676;45.192;5.722;2022-07-05T09:09:40;24.40;99.90
13223;DHT22;6676;45.192;5.722;2022-07-05T09:12:34;24.40;99.90
13223;DHT22;6676;45.192;5.722;2022-07-05T09:15:29;24.40;99.90
13223;DHT22;6676;45.192;5.722;2022-07-05T09:18:42;24.50;99.90
13223;DHT22;6676;45.192;5.722;2022-07-05T09:21:33;24.50;99.90
13223;DHT22;6676;45.192;5.722;2022-07-05T09:24:25;24.50;99.90
13223;DHT22;6676;45.192;5.722;2022-07-05T09:27:16;24.50;99.90
13223;DHT22;6676;45.192;5.722;2022-07-05T09:30:11;24.50;99.90
13223;DHT22;6676;45.192;5.722;2022-07-05T09:33:10;24.70;99.90
13223;DHT22;6676;45.192;5.722;2022-07-05T09:36:01;24.80;99.90
13223;DHT22;6676;45.192;5.722;2022-07-05T09:38:53;24.80;99.90
13223;DHT22;6676;45.192;5.722;2022-07-05T09:41:44;24.70;99.90
13223;DHT22;6676;45.192;5.722;2022-07-05T09:44:38;24.70;99.90
13223;DHT22;6676;45.192;5.722;2022-07-05T09:47:30;24.90;99.90
13223;DHT22;6676;45.192;5.722;2022-07-05T09:50:34;25.10;99.90
13223;DHT22;6676;45.192;5.722;2022-07-05T09:53:31;25.10;99.90
13223;DHT22;6676;45.192;5.722;2022-07-05T09:56:24;25.30;99.90
13223;DHT22;6676;45.192;5.722;2022-07-05T09:59:19;25.30;99.90
13223;DHT22;6676;45.192;5.722;2022-07-05T10:02:12;25.50;99.90
13223;DHT22;6676;45.192;5.722;2022-07-05T10:05:11;25.50;99.90
13223;DHT22;6676;45.192;5.722;2022-07-05T10:08:03;25.50;99.90
13223;DHT22;6676;45.192;5.722;2022-07-05T10:10:55;25.70;99.90
13223;DHT22;6676;45.192;5.722;2022-07-05T10:13:48;25.50;99.90
13223;DHT22;6676;45.192;5.722;2022-07-05T10:16:40;25.60;99.90
13223;DHT22;6676;45.192;5.722;2022-07-05T10:19:37;25.60;99.90
13223;DHT22;6676;45.192;5.722;2022-07-05T10:22:28;25.70;99.90
13223;DHT22;6676;45.192;5.722;2022-07-05T10:25:20;25.90;99.90
13223;DHT22;6676;45.192;5.722;2022-07-05T10:28:13;25.80;99.90
13223;DHT22;6676;45.192;5.722;2022-07-05T10:31:05;25.80;99.90
13223;DHT22;6676;45.192;5.722;2022-07-05T10:33:58;25.90;99.90
13223;DHT22;6676;45.192;5.722;2022-07-05T10:36:52;26.00;99.90
13223;DHT22;6676;45.192;5.722;2022-07-05T10:39:43;26.00;99.90
13223;DHT22;6676;45.192;5.722;2022-07-05T10:42:37;26.10;99.90
13223;DHT22;6676;45.192;5.722;2022-07-05T10:45:30;26.00;99.90
13223;DHT22;6676;45.192;5.722;2022-07-05T10:48:23;26.10;99.90
13223;DHT22;6676;45.192;5.722;2022-07-05T10:51:16;26.00;99.90
13223;DHT22;6676;45.192;5.722;2022-07-05T10:54:08;26.00;99.90
13223;DHT22;6676;45.192;5.722;2022-07-05T10:57:23;26.20;99.90
13223;DHT22;6676;45.192;5.722;2022-07-05T11:00:15;26.20;99.90
13223;DHT22;6676;45.192;5.722;2022-07-05T11:03:08;26.30;99.90
13223;DHT22;6676;45.192;5.722;2022-07-05T11:06:01;26.40;99.90
13223;DHT22;6676;45.192;5.722;2022-07-05T11:09:14;26.30;99.90
13223;DHT22;6676;45.192;5.722;2022-07-05T11:12:15;26.40;99.90
13223;DHT22;6676;45.192;5.722;2022-07-05T11:15:09;26.50;99.90
13223;DHT22;6676;45.192;5.722;2022-07-05T11:18:15;26.50;99.90
13223;DHT22;6676;45.192;5.722;2022-07-05T11:21:20;26.50;99.90
13223;DHT22;6676;45.192;5.722;2022-07-05T11:24:23;26.50;99.90
13223;DHT22;6676;45.192;5.722;2022-07-05T11:27:15;26.70;99.90
13223;DHT22;6676;45.192;5.722;2022-07-05T11:30:21;26.50;99.90
13223;DHT22;6676;45.192;5.722;2022-07-05T11:33:36;26.50;99.90
13223;DHT22;6676;45.192;5.722;2022-07-05T11:36:28;26.70;99.90
13223;DHT22;6676;45.192;5.722;2022-07-05T11:39:21;26.70;99.90
13223;DHT22;6676;45.192;5.722;2022-07-05T11:42:20;26.60;99.90
13223;DHT22;6676;45.192;5.722;2022-07-05T11:45:11;26.70;99.90
13223;DHT22;6676;45.192;5.722;2022-07-05T11:48:04;26.70;99.90
13223;DHT22;6676;45.192;5.722;2022-07-05T11:50:56;26.60;99.90
13223;DHT22;6676;45.192;5.722;2022-07-05T11:53:50;26.60;99.90
13223;DHT22;6676;45.192;5.722;2022-07-05T11:56:43;26.80;99.90
13223;DHT22;6676;45.192;5.722;2022-07-05T11:59:34;26.70;99.90
13223;DHT22;6676;45.192;5.722;2022-07-05T12:02:27;26.90;99.90
13223;DHT22;6676;45.192;5.722;2022-07-05T12:05:19;26.90;99.90
13223;DHT22;6676;45.192;5.722;2022-07-05T12:08:11;27.00;99.90
13223;DHT22;6676;45.192;5.722;2022-07-05T12:11:04;27.10;99.90
13223;DHT22;6676;45.192;5.722;2022-07-05T12:14:21;27.00;99.90
13223;DHT22;6676;45.192;5.722;2022-07-05T12:17:14;27.00;99.90
13223;DHT22;6676;45.192;5.722;2022-07-05T12:20:10;27.10;99.90
13223;DHT22;6676;45.192;5.722;2022-07-05T12:23:02;27.20;99.90
13223;DHT22;6676;45.192;5.722;2022-07-05T12:25:54;27.10;99.90
13223;DHT22;6676;45.192;5.722;2022-07-05T12:28:46;27.20;99.90
13223;DHT22;6676;45.192;5.722;2022-07-05T12:31:38;27.20;99.90
13223;DHT22;6676;45.192;5.722;2022-07-05T12:34:29;27.40;99.90
13223;DHT22;6676;45.192;5.722;2022-07-05T12:37:22;27.50;99.90
13223;DHT22;6676;45.192;5.722;2022-07-05T12:40:14;27.50;99.90
13223;DHT22;6676;45.192;5.722;2022-07-05T12:43:07;27.50;99.90
13223;DHT22;6676;45.192;5.722;2022-07-05T12:46:03;27.40;99.90
13223;DHT22;6676;45.192;5.722;2022-07-05T12:48:55;27.40;99.90
13223;DHT22;6676;45.192;5.722;2022-07-05T12:51:47;27.40;99.90
13223;DHT22;6676;45.192;5.722;2022-07-05T12:54:39;27.40;99.90
13223;DHT22;6676;45.192;5.722;2022-07-05T12:57:50;27.50;99.90
13223;DHT22;6676;45.192;5.722;2022-07-05T13:04:00;27.70;99.90
13223;DHT22;6676;45.192;5.722;2022-07-05T13:06:53;27.70;99.90
13223;DHT22;6676;45.192;5.722;2022-07-05T13:09:45;27.80;99.90
13223;DHT22;6676;45.192;5.722;2022-07-05T13:12:36;28.00;99.90
13223;DHT22;6676;45.192;5.722;2022-07-05T13:15:28;27.80;99.90
13223;DHT22;6676;45.192;5.722;2022-07-05T13:18:26;27.90;99.90
13223;DHT22;6676;45.192;5.722;2022-07-05T13:21:17;28.00;99.90
13223;DHT22;6676;45.192;5.722;2022-07-05T13:24:10;27.90;99.90
13223;DHT22;6676;45.192;5.722;2022-07-05T13:27:03;27.90;99.90
13223;DHT22;6676;45.192;5.722;2022-07-05T13:29:54;27.90;99.90
13223;DHT22;6676;45.192;5.722;2022-07-05T13:32:46;28.00;99.90
13223;DHT22;6676;45.192;5.722;2022-07-05T13:35:37;28.00;99.90
13223;DHT22;6676;45.192;5.722;2022-07-05T13:38:28;28.10;99.90
13223;DHT22;6676;45.192;5.722;2022-07-05T13:41:20;28.20;99.90
13223;DHT22;6676;45.192;5.722;2022-07-05T13:44:13;28.20;99.90
13223;DHT22;6676;45.192;5.722;2022-07-05T13:47:05;28.20;99.90
13223;DHT22;6676;45.192;5.722;2022-07-05T13:49:56;28.40;99.90
13223;DHT22;6676;45.192;5.722;2022-07-05T13:53:07;28.70;99.90
13223;DHT22;6676;45.192;5.722;2022-07-05T13:55:58;28.70;99.90
13223;DHT22;6676;45.192;5.722;2022-07-05T13:58:50;28.90;99.90
13223;DHT22;6676;45.192;5.722;2022-07-05T14:01:41;28.90;99.90
13223;DHT22;6676;45.192;5.722;2022-07-05T14:04:32;29.10;99.90
13223;DHT22;6676;45.192;5.722;2022-07-05T14:07:25;29.20;99.90
13223;DHT22;6676;45.192;5.722;2022-07-05T14:10:17;29.40;99.90
13223;DHT22;6676;45.192;5.722;2022-07-05T14:13:08;29.40;99.90
13223;DHT22;6676;45.192;5.722;2022-07-05T14:16:00;29.50;99.90
13223;DHT22;6676;45.192;5.722;2022-07-05T14:18:52;29.50;99.90
13223;DHT22;6676;45.192;5.722;2022-07-05T14:21:43;29.60;99.90
13223;DHT22;6676;45.192;5.722;2022-07-05T14:24:37;29.90;99.90
13223;DHT22;6676;45.192;5.722;2022-07-05T14:27:28;30.00;99.90
13223;DHT22;6676;45.192;5.722;2022-07-05T14:30:19;30.00;99.90
13223;DHT22;6676;45.192;5.722;2022-07-05T14:33:13;30.20;99.90
13223;DHT22;6676;45.192;5.722;2022-07-05T14:36:06;30.30;99.90
13223;DHT22;6676;45.192;5.722;2022-07-05T14:38:58;30.60;99.90
13223;DHT22;6676;45.192;5.722;2022-07-05T14:41:51;30.30;99.90
13223;DHT22;6676;45.192;5.722;2022-07-05T14:44:43;30.50;99.90
13223;DHT22;6676;45.192;5.722;2022-07-05T14:47:34;30.70;99.90
13223;DHT22;6676;45.192;5.722;2022-07-05T14:50:25;30.50;99.90
13223;DHT22;6676;45.192;5.722;2022-07-05T14:53:17;30.20;99.90
13223;DHT22;6676;45.192;5.722;2022-07-05T14:56:09;30.20;99.90
13223;DHT22;6676;45.192;5.722;2022-07-05T14:59:00;30.60;99.90
13223;DHT22;6676;45.192;5.722;2022-07-05T15:01:52;30.80;99.90
13223;DHT22;6676;45.192;5.722;2022-07-05T15:04:44;30.90;99.80
13223;DHT22;6676;45.192;5.722;2022-07-05T15:07:40;30.70;99.70
13223;DHT22;6676;45.192;5.722;2022-07-05T15:10:33;30.70;99.70
13223;DHT22;6676;45.192;5.722;2022-07-05T15:13:26;30.70;99.00
13223;DHT22;6676;45.192;5.722;2022-07-05T15:16:19;30.70;99.20
13223;DHT22;6676;45.192;5.722;2022-07-05T15:19:13;30.40;99.10
13223;DHT22;6676;45.192;5.722;2022-07-05T15:22:07;30.30;98.90
13223;DHT22;6676;45.192;5.722;2022-07-05T15:25:04;30.90;98.50
13223;DHT22;6676;45.192;5.722;2022-07-05T15:27:57;31.00;97.80
13223;DHT22;6676;45.192;5.722;2022-07-05T15:30:50;31.40;97.50
13223;DHT22;6676;45.192;5.722;2022-07-05T15:33:42;31.60;96.70
13223;DHT22;6676;45.192;5.722;2022-07-05T15:36:35;31.80;95.90
13223;DHT22;6676;45.192;5.722;2022-07-05T15:39:28;31.80;95.20
13223;DHT22;6676;45.192;5.722;2022-07-05T15:42:26;31.50;95.50
13223;DHT22;6676;45.192;5.722;2022-07-05T15:45:18;31.00;95.10
13223;DHT22;6676;45.192;5.722;2022-07-05T15:48:12;31.30;95.00
13223;DHT22;6676;45.192;5.722;2022-07-05T15:51:06;31.40;94.40
13223;DHT22;6676;45.192;5.722;2022-07-05T15:54:00;31.40;94.20
13223;DHT22;6676;45.192;5.722;2022-07-05T15:56:58;31.60;94.00
13223;DHT22;6676;45.192;5.722;2022-07-05T15:59:55;31.80;93.60
13223;DHT22;6676;45.192;5.722;2022-07-05T16:02:48;31.50;93.20
13223;DHT22;6676;45.192;5.722;2022-07-05T16:05:48;31.50;93.60
13223;DHT22;6676;45.192;5.722;2022-07-05T16:08:41;30.90;94.00
13223;DHT22;6676;45.192;5.722;2022-07-05T16:11:33;30.40;94.60
13223;DHT22;6676;45.192;5.722;2022-07-05T16:14:35;30.90;94.00
13223;DHT22;6676;45.192;5.722;2022-07-05T16:17:27;30.40;94.20
13223;DHT22;6676;45.192;5.722;2022-07-05T16:20:23;29.70;94.80
13223;DHT22;6676;45.192;5.722;2022-07-05T16:23:16;29.20;95.70
13223;DHT22;6676;45.192;5.722;2022-07-05T16:26:12;29.20;96.50
13223;DHT22;6676;45.192;5.722;2022-07-05T16:29:05;29.30;95.90
13223;DHT22;6676;45.192;5.722;2022-07-05T16:32:00;29.40;96.10
13223;DHT22;6676;45.192;5.722;2022-07-05T16:34:54;29.60;95.70
13223;DHT22;6676;45.192;5.722;2022-07-05T16:37:50;29.30;96.10
13223;DHT22;6676;45.192;5.722;2022-07-05T16:40:44;29.20;96.30
13223;DHT22;6676;45.192;5.722;2022-07-05T16:43:39;28.80;96.50
13223;DHT22;6676;45.192;5.722;2022-07-05T16:46:33;28.70;96.70
13223;DHT22;6676;45.192;5.722;2022-07-05T16:49:28;29.10;96.10
13223;DHT22;6676;45.192;5.722;2022-07-05T16:52:21;28.80;96.80
13223;DHT22;6676;45.192;5.722;2022-07-05T16:55:16;28.50;96.60
13223;DHT22;6676;45.192;5.722;2022-07-05T16:58:12;28.70;96.50
13223;DHT22;6676;45.192;5.722;2022-07-05T17:01:06;29.90;95.10
13223;DHT22;6676;45.192;5.722;2022-07-05T17:04:02;30.30;94.10
13223;DHT22;6676;45.192;5.722;2022-07-05T17:06:58;30.90;92.90
13223;DHT22;6676;45.192;5.722;2022-07-05T17:09:51;30.90;92.50
13223;DHT22;6676;45.192;5.722;2022-07-05T17:12:44;30.70;92.40
13223;DHT22;6676;45.192;5.722;2022-07-05T17:15:38;30.60;92.40
13223;DHT22;6676;45.192;5.722;2022-07-05T17:18:32;30.90;92.20
13223;DHT22;6676;45.192;5.722;2022-07-05T17:21:27;30.80;91.30
13223;DHT22;6676;45.192;5.722;2022-07-05T17:24:20;30.90;91.50
13223;DHT22;6676;45.192;5.722;2022-07-05T17:27:30;30.70;91.00
13223;DHT22;6676;45.192;5.722;2022-07-05T17:30:30;30.50;91.10
13223;DHT22;6676;45.192;5.722;2022-07-05T17:33:26;30.30;91.10
13223;DHT22;6676;45.192;5.722;2022-07-05T17:36:19;30.10;91.10
13223;DHT22;6676;45.192;5.722;2022-07-05T17:39:20;30.10;91.00
13223;DHT22;6676;45.192;5.722;2022-07-05T17:42:14;29.90;91.20
13223;DHT22;6676;45.192;5.722;2022-07-05T17:45:09;29.30;91.80
13223;DHT22;6676;45.192;5.722;2022-07-05T17:48:02;28.70;92.30
13223;DHT22;6676;45.192;5.722;2022-07-05T17:50:55;28.10;92.80
13223;DHT22;6676;45.192;5.722;2022-07-05T17:53:49;28.40;92.80
13223;DHT22;6676;45.192;5.722;2022-07-05T17:56:45;28.70;92.60
13223;DHT22;6676;45.192;5.722;2022-07-05T17:59:38;28.80;92.20
13223;DHT22;6676;45.192;5.722;2022-07-05T18:02:31;28.80;91.70
13223;DHT22;6676;45.192;5.722;2022-07-05T18:08:09;28.70;91.70
13223;DHT22;6676;45.192;5.722;2022-07-05T18:11:03;28.90;91.30
13223;DHT22;6676;45.192;5.722;2022-07-05T18:13:54;28.80;91.10
13223;DHT22;6676;45.192;5.722;2022-07-05T18:16:45;28.90;91.00
13223;DHT22;6676;45.192;5.722;2022-07-05T18:19:37;28.70;91.00
13223;DHT22;6676;45.192;5.722;2022-07-05T18:22:28;28.10;91.30
13223;DHT22;6676;45.192;5.722;2022-07-05T18:25:19;28.10;91.50
13223;DHT22;6676;45.192;5.722;2022-07-05T18:28:11;28.40;91.30
13223;DHT22;6676;45.192;5.722;2022-07-05T18:31:03;28.30;91.20
13223;DHT22;6676;45.192;5.722;2022-07-05T18:33:54;28.40;90.30
13223;DHT22;6676;45.192;5.722;2022-07-05T18:36:45;28.10;90.10
13223;DHT22;6676;45.192;5.722;2022-07-05T18:39:37;27.60;90.40